Time;durP1;ratioP1;P1;durP2;ratioP2;P2;SDS_P1;SDS_P2;PMS_P1;PMS_P2;Temp;Humidity;BMP_temperature;BMP_pressure;BME280_temperature;BME280_humidity;BME280_pressure;Samples;Min_cycle;Max_cycle;Signal;HPM_P1;HPM_P2
2022/06/28 00:02:14;;;;;;;3.65;3.03;;;13.50;99.90;;;;;;6266927;22;20467;-66
2022/06/28 00:04:40;;;;;;;8.25;3.95;;;13.40;99.90;;;;;;6268415;22;20350;-66
2022/06/28 00:07:05;;;;;;;8.43;4.07;;;13.40;99.90;;;;;;6268914;22;20015;-66
2022/06/28 00:09:31;;;;;;;9.13;3.42;;;13.40;99.90;;;;;;6269531;22;20039;-66
2022/06/28 00:11:57;;;;;;;5.80;3.95;;;13.40;99.90;;;;;;6268421;22;20012;-66
2022/06/28 00:17:07;;;;;;;14.25;3.90;;;13.30;99.90;;;;;;6266661;22;20027;-66
2022/06/28 00:19:33;;;;;;;6.88;3.83;;;13.20;99.90;;;;;;6269096;22;20034;-66
2022/06/28 00:21:59;;;;;;;6.43;3.78;;;13.20;99.90;;;;;;6240862;22;20106;-66
2022/06/28 00:24:25;;;;;;;8.98;4.50;;;13.20;99.90;;;;;;6269611;22;20023;-66
2022/06/28 00:26:51;;;;;;;6.20;3.72;;;13.10;99.90;;;;;;6268715;22;20016;-66
2022/06/28 00:29:17;;;;;;;6.28;4.05;;;13.10;99.90;;;;;;6268419;22;20320;-66
2022/06/28 00:31:43;;;;;;;9.45;4.28;;;13.10;99.90;;;;;;6267428;22;20400;-66
2022/06/28 00:34:08;;;;;;;5.40;4.28;;;13.10;99.90;;;;;;6240412;22;20023;-66
2022/06/28 00:36:34;;;;;;;9.18;4.38;;;13.10;99.90;;;;;;6269096;22;20055;-66
2022/06/28 00:39:00;;;;;;;11.30;3.95;;;13.00;99.90;;;;;;6240810;22;20015;-65
2022/06/28 00:41:26;;;;;;;16.67;3.85;;;13.00;99.90;;;;;;6267149;22;20023;-66
2022/06/28 00:43:53;;;;;;;9.05;4.20;;;13.10;99.90;;;;;;6268448;22;20012;-66
2022/06/28 00:46:19;;;;;;;7.10;4.03;;;13.10;99.90;;;;;;6268755;22;20019;-66
2022/06/28 00:48:47;;;;;;;8.90;4.18;;;13.00;99.90;;;;;;6268963;22;20094;-66
2022/06/28 00:51:13;;;;;;;8.63;3.97;;;13.00;99.90;;;;;;6265859;22;20402;-66
2022/06/28 00:53:39;;;;;;;13.65;4.75;;;13.00;99.90;;;;;;6267117;22;20054;-66
2022/06/28 00:56:05;;;;;;;6.88;4.38;;;13.00;99.90;;;;;;6267662;22;20145;-66
2022/06/28 00:58:31;;;;;;;4.80;4.20;;;13.00;99.90;;;;;;6267279;22;20031;-66
2022/06/28 01:00:57;;;;;;;8.77;4.45;;;12.90;99.90;;;;;;6267729;22;20442;-66
2022/06/28 01:03:23;;;;;;;8.45;4.00;;;12.90;99.90;;;;;;6268767;22;20050;-66
2022/06/28 01:05:51;;;;;;;16.48;4.63;;;12.90;99.90;;;;;;6268644;22;20030;-66
2022/06/28 01:08:18;;;;;;;5.55;4.20;;;12.90;99.90;;;;;;6241225;22;20019;-66
2022/06/28 01:10:44;;;;;;;12.77;4.75;;;12.80;99.90;;;;;;6269030;22;20012;-66
2022/06/28 01:13:12;;;;;;;8.68;4.30;;;12.80;99.90;;;;;;6267787;22;20051;-66
2022/06/28 01:15:40;;;;;;;7.10;4.55;;;12.80;99.90;;;;;;6268849;22;20087;-66
2022/06/28 01:18:07;;;;;;;8.02;4.45;;;12.80;99.90;;;;;;6265649;22;20069;-65
2022/06/28 01:20:33;;;;;;;9.80;4.40;;;12.70;99.90;;;;;;6268704;22;20020;-66
2022/06/28 01:22:59;;;;;;;5.60;4.68;;;12.70;99.90;;;;;;6268346;22;20039;-65
2022/06/28 01:25:25;;;;;;;7.43;4.35;;;12.70;99.90;;;;;;6267951;22;20514;-66
2022/06/28 01:27:52;;;;;;;6.80;4.15;;;12.60;99.90;;;;;;6268870;22;20030;-66
2022/06/28 01:30:18;;;;;;;30.98;5.07;;;12.60;99.90;;;;;;6267379;22;20051;-65
2022/06/28 01:32:44;;;;;;;9.63;4.25;;;12.60;99.90;;;;;;6266505;22;20391;-66
2022/06/28 01:35:10;;;;;;;9.02;4.25;;;12.60;99.90;;;;;;6240274;22;20055;-66
2022/06/28 01:37:36;;;;;;;6.60;4.03;;;12.50;99.90;;;;;;6267909;22;20089;-66
2022/06/28 01:40:04;;;;;;;7.35;4.80;;;12.50;99.90;;;;;;6265762;22;20020;-66
2022/06/28 01:42:31;;;;;;;8.93;5.05;;;12.50;99.90;;;;;;6268144;22;20027;-66
2022/06/28 01:44:58;;;;;;;6.55;4.78;;;12.50;99.90;;;;;;6268451;22;20018;-66
2022/06/28 01:47:26;;;;;;;6.80;4.85;;;12.50;99.90;;;;;;6267358;22;20015;-66
2022/06/28 01:49:52;;;;;;;13.63;5.10;;;12.50;99.90;;;;;;6268832;22;20078;-66
2022/06/28 01:52:20;;;;;;;6.35;4.95;;;12.40;99.90;;;;;;6265761;22;20024;-66
2022/06/28 01:54:46;;;;;;;13.05;4.82;;;12.40;99.90;;;;;;6241223;22;20015;-66
2022/06/28 01:57:14;;;;;;;10.48;4.55;;;12.40;99.90;;;;;;6240627;22;20016;-66
2022/06/28 01:59:39;;;;;;;7.90;5.43;;;12.40;99.90;;;;;;6266105;22;20338;-65
2022/06/28 02:02:07;;;;;;;24.58;5.03;;;12.40;99.90;;;;;;6267724;22;20020;-66
2022/06/28 02:04:33;;;;;;;37.47;4.57;;;12.40;99.90;;;;;;6268675;22;20020;-66
2022/06/28 02:06:59;;;;;;;11.60;4.72;;;12.40;99.90;;;;;;6270300;22;20023;-66
2022/06/28 02:09:25;;;;;;;16.73;4.78;;;12.30;99.90;;;;;;6269862;22;20015;-66
2022/06/28 02:11:53;;;;;;;9.38;4.82;;;12.30;99.90;;;;;;6268855;22;20438;-65
2022/06/28 02:14:22;;;;;;;13.35;4.35;;;12.20;99.90;;;;;;6268332;22;20012;-66
2022/06/28 02:16:48;;;;;;;9.00;6.05;;;12.20;99.90;;;;;;6269748;22;20019;-66
2022/06/28 02:19:14;;;;;;;9.27;5.80;;;12.20;99.90;;;;;;6270049;22;20023;-66
2022/06/28 02:21:44;;;;;;;12.55;5.60;;;12.20;99.90;;;;;;6269393;22;20458;-65
2022/06/28 02:24:10;;;;;;;;;;;12.10;99.90;;;;;;6268808;22;20346;-66
2022/06/28 02:26:36;;;;;;;8.75;5.78;;;12.10;99.90;;;;;;6269729;22;19923;-65
2022/06/28 02:29:04;;;;;;;10.63;5.43;;;12.10;99.90;;;;;;6270141;22;20342;-65
2022/06/28 02:31:30;;;;;;;9.90;5.80;;;12.00;99.90;;;;;;6267696;22;20024;-65
2022/06/28 02:33:57;;;;;;;13.40;5.88;;;12.00;99.90;;;;;;6268733;22;20016;-65
2022/06/28 02:41:55;;;;;;;9.23;5.22;;;12.00;99.90;;;;;;6221482;22;20397;-65
2022/06/28 02:44:21;;;;;;;12.95;5.15;;;12.00;99.90;;;;;;6267446;22;20097;-65
2022/06/28 02:46:47;;;;;;;6.70;4.80;;;12.00;99.90;;;;;;6270329;22;20427;-65
2022/06/28 02:49:15;;;;;;;12.57;5.10;;;12.00;99.90;;;;;;6216945;22;20015;-66
2022/06/28 02:51:41;;;;;;;14.45;5.57;;;12.00;99.90;;;;;;6267612;22;20015;-66
2022/06/28 02:54:12;;;;;;;11.73;5.28;;;12.00;99.90;;;;;;6267697;22;20138;-66
2022/06/28 02:56:40;;;;;;;13.13;5.38;;;12.00;99.90;;;;;;6266735;22;20055;-65
2022/06/28 02:59:05;;;;;;;7.82;5.28;;;11.90;99.90;;;;;;6267576;22;20016;-66
2022/06/28 03:01:31;;;;;;;8.73;5.10;;;11.90;99.90;;;;;;6267460;22;20020;-65
2022/06/28 03:03:57;;;;;;;10.15;4.25;;;11.90;99.90;;;;;;6269883;22;20111;-65
2022/06/28 03:06:22;;;;;;;32.38;4.15;;;11.90;99.90;;;;;;6269288;22;20016;-66
2022/06/28 03:08:48;;;;;;;14.05;3.83;;;11.90;99.90;;;;;;6267550;22;20482;-66
2022/06/28 03:11:14;;;;;;;7.20;3.63;;;11.90;99.90;;;;;;6269457;22;20019;-66
2022/06/28 03:13:39;;;;;;;4.72;4.13;;;11.80;99.90;;;;;;6269498;22;20019;-66
2022/06/28 03:16:05;;;;;;;6.50;4.30;;;11.80;99.90;;;;;;6267391;22;20012;-66
2022/06/28 03:18:31;;;;;;;11.65;4.43;;;11.70;99.90;;;;;;6268074;22;20442;-66
2022/06/28 03:20:57;;;;;;;11.43;4.30;;;11.70;99.90;;;;;;6268311;22;20026;-66
2022/06/28 03:23:22;;;;;;;9.60;4.63;;;11.70;99.90;;;;;;6268663;22;20023;-66
2022/06/28 03:25:48;;;;;;;11.07;4.07;;;11.70;99.90;;;;;;6267663;22;20104;-67
2022/06/28 03:28:14;;;;;;;13.00;4.70;;;11.70;99.90;;;;;;6266975;22;20050;-66
2022/06/28 03:30:40;;;;;;;4.88;3.90;;;11.80;99.90;;;;;;6269661;22;20021;-67
2022/06/28 03:33:05;;;;;;;7.63;4.80;;;11.80;99.90;;;;;;6267397;22;20043;-66
2022/06/28 03:35:31;;;;;;;4.57;4.00;;;11.80;99.90;;;;;;6269093;22;20446;-66
2022/06/28 03:37:57;;;;;;;5.05;3.90;;;11.90;99.90;;;;;;6269827;22;20015;-66
2022/06/28 03:40:22;;;;;;;5.35;3.80;;;11.80;99.90;;;;;;6268010;22;20319;-66
2022/06/28 03:42:48;;;;;;;5.38;3.80;;;11.80;99.90;;;;;;6267730;22;20015;-66
2022/06/28 03:45:14;;;;;;;9.57;3.85;;;11.90;99.90;;;;;;6269240;22;20058;-66
2022/06/28 03:47:40;;;;;;;7.32;3.97;;;11.90;99.90;;;;;;6269771;22;20396;-66
2022/06/28 03:50:11;;;;;;;12.23;4.10;;;11.90;99.90;;;;;;6268647;22;20058;-66
2022/06/28 03:52:37;;;;;;;5.90;3.45;;;11.90;99.90;;;;;;6268927;22;20024;-66
2022/06/28 03:55:03;;;;;;;12.23;3.90;;;11.90;99.90;;;;;;6267795;22;20469;-66
2022/06/28 03:57:29;;;;;;;8.32;3.90;;;11.90;99.90;;;;;;6268202;22;20024;-66
2022/06/28 03:59:56;;;;;;;7.38;3.92;;;11.90;99.90;;;;;;6269183;22;20076;-66
2022/06/28 04:02:22;;;;;;;9.60;3.38;;;11.80;99.90;;;;;;6268130;22;20489;-66
2022/06/28 04:04:48;;;;;;;4.95;4.07;;;11.90;99.90;;;;;;6266958;22;20069;-66
2022/06/28 04:07:14;;;;;;;10.25;3.67;;;11.90;99.90;;;;;;6266854;22;20118;-66
2022/06/28 04:09:39;;;;;;;10.20;4.30;;;11.90;99.90;;;;;;6266776;22;20023;-66
2022/06/28 04:12:06;;;;;;;6.72;3.95;;;12.00;99.90;;;;;;6267591;22;20021;-66
2022/06/28 04:14:32;;;;;;;11.32;3.70;;;12.00;99.90;;;;;;6267065;22;20070;-66
2022/06/28 04:16:57;;;;;;;10.77;4.22;;;12.00;99.90;;;;;;6269236;22;20019;-66
2022/06/28 04:19:23;;;;;;;14.02;4.15;;;12.10;99.90;;;;;;6265862;22;20450;-66
2022/06/28 04:21:49;;;;;;;8.23;4.25;;;12.10;99.90;;;;;;6267792;22;20043;-66
2022/06/28 04:24:14;;;;;;;5.90;4.20;;;12.20;99.90;;;;;;6268229;22;20096;-66
2022/06/28 04:26:40;;;;;;;13.65;4.38;;;12.30;99.90;;;;;;6268913;22;20011;-66
2022/06/28 04:29:06;;;;;;;8.32;4.57;;;12.30;99.90;;;;;;6268427;22;20138;-66
2022/06/28 04:31:32;;;;;;;5.90;4.00;;;12.40;99.90;;;;;;6267965;22;20022;-66
2022/06/28 04:33:58;;;;;;;11.38;4.85;;;12.50;99.90;;;;;;6267680;22;20106;-66
2022/06/28 04:36:26;;;;;;;8.63;4.28;;;12.60;99.90;;;;;;6265711;22;20427;-67
2022/06/28 04:38:52;;;;;;;12.80;4.32;;;12.80;99.90;;;;;;6269401;22;20347;-66
2022/06/28 04:41:19;;;;;;;7.38;4.45;;;12.90;99.90;;;;;;6268170;22;20029;-66
2022/06/28 04:43:45;;;;;;;9.13;4.30;;;13.10;99.90;;;;;;6267006;22;20016;-66
2022/06/28 04:46:10;;;;;;;11.57;4.80;;;13.20;99.90;;;;;;6267163;22;20327;-66
2022/06/28 04:48:36;;;;;;;10.05;4.40;;;13.30;99.90;;;;;;6240345;22;20069;-66
2022/06/28 04:51:12;;;;;;;8.60;3.90;;;13.50;99.90;;;;;;6267569;22;20024;-66
2022/06/28 04:53:40;;;;;;;8.60;4.72;;;13.60;99.90;;;;;;6266164;22;20027;-66
2022/06/28 04:56:07;;;;;;;8.55;4.13;;;13.80;99.90;;;;;;6268886;22;20014;-66
2022/06/28 04:58:33;;;;;;;6.38;4.32;;;13.80;99.90;;;;;;6266742;22;20383;-66
2022/06/28 05:00:59;;;;;;;10.85;4.57;;;13.90;99.90;;;;;;6266853;22;20032;-66
2022/06/28 05:03:25;;;;;;;11.95;4.72;;;14.00;99.90;;;;;;6268493;22;20022;-67
2022/06/28 05:05:50;;;;;;;7.05;4.05;;;14.00;99.90;;;;;;6268104;22;20024;-66
2022/06/28 05:08:16;;;;;;;12.02;4.00;;;14.10;99.90;;;;;;6266631;22;20019;-67
2022/06/28 05:10:42;;;;;;;13.63;4.13;;;14.20;99.90;;;;;;6268018;22;20011;-66
2022/06/28 05:13:08;;;;;;;6.18;4.07;;;14.20;99.90;;;;;;6268960;22;20058;-66
2022/06/28 05:15:33;;;;;;;14.63;4.07;;;14.20;99.90;;;;;;6267161;22;20016;-66
2022/06/28 05:17:59;;;;;;;9.40;4.50;;;14.10;99.90;;;;;;6266752;22;20034;-66
2022/06/28 05:20:25;;;;;;;8.98;3.92;;;14.00;99.90;;;;;;6267699;22;20103;-66
2022/06/28 05:22:51;;;;;;;12.30;4.20;;;14.00;99.90;;;;;;6268402;22;20034;-66
2022/06/28 05:25:17;;;;;;;6.43;3.75;;;14.00;99.90;;;;;;6268246;22;20015;-66
2022/06/28 05:27:43;;;;;;;17.55;3.85;;;13.90;99.90;;;;;;6266160;22;20450;-66
2022/06/28 05:30:09;;;;;;;12.65;3.92;;;14.00;99.90;;;;;;6269122;22;20110;-67
2022/06/28 05:32:35;;;;;;;8.57;3.53;;;14.00;99.90;;;;;;6264740;22;20016;-66
2022/06/28 05:35:01;;;;;;;14.75;4.53;;;14.10;99.90;;;;;;6269442;22;20022;-67
2022/06/28 05:37:26;;;;;;;6.95;4.07;;;14.20;99.90;;;;;;6266292;22;20072;-66
2022/06/28 05:39:52;;;;;;;9.05;3.47;;;14.30;99.90;;;;;;6267339;22;20022;-67
2022/06/28 05:42:19;;;;;;;11.82;3.38;;;14.40;99.90;;;;;;6269991;22;20441;-66
2022/06/28 05:44:44;;;;;;;10.27;3.83;;;14.80;99.90;;;;;;6268393;22;20338;-66
2022/06/28 05:47:11;;;;;;;9.73;4.28;;;14.90;99.90;;;;;;6269681;22;20023;-67
2022/06/28 05:49:38;;;;;;;10.85;4.43;;;14.90;99.90;;;;;;6267352;22;20026;-67
2022/06/28 05:52:05;;;;;;;6.35;3.92;;;14.90;99.90;;;;;;6270799;22;20387;-67
2022/06/28 05:54:30;;;;;;;12.13;4.25;;;15.00;99.90;;;;;;6242148;22;20120;-66
2022/06/28 05:56:56;;;;;;;10.95;4.22;;;15.00;99.90;;;;;;6268651;22;20430;-67
2022/06/28 05:59:23;;;;;;;14.82;4.35;;;15.10;99.90;;;;;;6267895;22;20023;-67
2022/06/28 06:01:49;;;;;;;10.18;4.70;;;15.20;99.90;;;;;;6270341;22;20039;-67
2022/06/28 06:04:14;;;;;;;16.10;4.80;;;15.30;99.90;;;;;;6268992;22;20341;-67
2022/06/28 06:06:40;;;;;;;9.60;4.60;;;15.40;99.90;;;;;;6267377;22;20070;-67
2022/06/28 06:09:06;;;;;;;7.93;4.50;;;15.50;99.90;;;;;;6271073;22;20387;-67
2022/06/28 06:11:32;;;;;;;9.82;4.22;;;15.50;99.90;;;;;;6269371;22;20019;-66
2022/06/28 06:13:58;;;;;;;11.63;4.20;;;15.50;99.90;;;;;;6270589;22;20069;-67
2022/06/28 06:16:23;;;;;;;13.48;4.90;;;15.50;99.90;;;;;;6267140;22;20012;-67
2022/06/28 06:18:49;;;;;;;15.63;5.35;;;15.50;99.90;;;;;;6270686;22;20023;-67
2022/06/28 06:21:15;;;;;;;9.57;4.35;;;15.50;99.90;;;;;;6268153;22;20545;-66
2022/06/28 06:23:41;;;;;;;11.38;4.97;;;15.60;99.90;;;;;;6269553;22;20096;-66
2022/06/28 06:26:06;;;;;;;13.77;5.63;;;15.70;99.90;;;;;;6268333;22;20457;-67
2022/06/28 06:28:34;;;;;;;14.52;5.60;;;15.80;99.90;;;;;;6267366;22;20023;-67
2022/06/28 06:31:00;;;;;;;12.50;5.53;;;15.90;99.90;;;;;;6268729;22;20358;-67
2022/06/28 06:33:26;;;;;;;9.48;4.57;;;16.00;99.90;;;;;;6267371;22;20118;-67
2022/06/28 06:35:52;;;;;;;10.77;4.70;;;16.10;99.90;;;;;;6268450;22;20497;-67
2022/06/28 06:38:18;;;;;;;16.20;5.57;;;16.10;99.90;;;;;;6270256;22;20145;-67
2022/06/28 06:40:43;;;;;;;8.98;4.53;;;16.20;99.90;;;;;;6267790;22;20582;-67
2022/06/28 06:43:09;;;;;;;10.80;4.35;;;16.30;99.90;;;;;;6270025;22;20320;-67
2022/06/28 06:45:35;;;;;;;7.35;4.00;;;16.30;99.90;;;;;;6268671;22;20118;-67
2022/06/28 06:48:00;;;;;;;8.93;4.07;;;16.40;99.90;;;;;;6243386;22;20449;-67
2022/06/28 06:50:26;;;;;;;16.38;4.72;;;16.50;99.90;;;;;;6266582;22;20043;-67
2022/06/28 06:52:52;;;;;;;11.25;4.10;;;16.60;99.90;;;;;;6270564;22;20023;-67
2022/06/28 06:55:17;;;;;;;11.77;4.35;;;16.70;99.90;;;;;;6242046;22;20083;-67
2022/06/28 06:57:44;;;;;;;9.02;4.03;;;16.90;99.90;;;;;;6268505;22;20022;-67
2022/06/28 07:00:11;;;;;;;8.88;3.50;;;17.10;99.90;;;;;;6269939;22;20022;-67
2022/06/28 07:02:42;;;;;;;7.75;3.58;;;17.30;99.90;;;;;;6268160;22;20079;-67
2022/06/28 07:05:09;;;;;;;6.10;3.03;;;17.40;99.90;;;;;;6217657;22;20023;-67
2022/06/28 07:07:35;;;;;;;11.40;3.00;;;17.70;99.90;;;;;;6269005;22;20090;-67
2022/06/28 07:10:03;;;;;;;5.32;2.30;;;17.90;99.90;;;;;;6270215;22;20059;-67
2022/06/28 07:12:29;;;;;;;6.22;2.72;;;18.20;99.90;;;;;;6268228;22;20100;-68
2022/06/28 07:14:55;;;;;;;8.35;3.05;;;18.60;99.90;;;;;;6269809;22;20020;-67
2022/06/28 07:17:21;;;;;;;7.97;2.92;;;18.80;99.90;;;;;;6267110;22;20039;-68
2022/06/28 07:19:47;;;;;;;14.70;3.85;;;18.90;99.90;;;;;;6268287;22;20537;-67
2022/06/28 07:22:13;;;;;;;8.98;2.80;;;19.10;99.90;;;;;;6267787;22;20047;-67
2022/06/28 07:24:39;;;;;;;8.77;2.95;;;19.30;99.90;;;;;;6267021;22;20020;-67
2022/06/28 07:27:05;;;;;;;12.52;3.45;;;19.40;99.90;;;;;;6270422;22;20016;-68
2022/06/28 07:29:31;;;;;;;7.38;2.90;;;19.40;99.90;;;;;;6268711;22;20022;-67
2022/06/28 07:31:59;;;;;;;7.15;3.13;;;19.30;99.90;;;;;;6242117;22;20016;-67
2022/06/28 07:34:25;;;;;;;11.50;2.80;;;19.20;99.90;;;;;;6269196;22;20049;-67
2022/06/28 07:36:50;;;;;;;2.80;2.35;;;19.40;99.90;;;;;;6266829;22;20020;-67
2022/06/28 07:39:18;;;;;;;7.78;2.42;;;19.70;99.90;;;;;;6267612;22;20061;-67
2022/06/28 07:41:44;;;;;;;5.30;2.30;;;20.10;99.90;;;;;;6266721;22;20030;-68
2022/06/28 07:44:09;;;;;;;9.30;3.10;;;20.40;99.90;;;;;;6266771;22;20055;-68
2022/06/28 07:46:35;;;;;;;7.38;2.83;;;20.50;99.90;;;;;;6263700;22;20338;-67
2022/06/28 07:49:01;;;;;;;8.88;2.35;;;20.30;99.90;;;;;;6265283;22;20011;-68
2022/06/28 07:54:12;;;;;;;6.93;1.63;;;19.90;99.90;;;;;;6264354;22;20098;-67
2022/06/28 07:56:38;;;;;;;9.43;2.25;;;19.50;99.90;;;;;;6265786;22;20228;-67
2022/06/28 07:59:04;;;;;;;10.68;2.45;;;19.30;99.90;;;;;;6268212;22;20015;-67
2022/06/28 08:01:30;;;;;;;4.75;1.92;;;19.70;99.90;;;;;;6269107;22;20015;-67
2022/06/28 08:03:55;;;;;;;11.40;1.92;;;19.90;99.90;;;;;;6265418;22;20058;-67
2022/06/28 08:06:21;;;;;;;6.70;1.92;;;19.80;99.90;;;;;;6267676;22;20107;-67
2022/06/28 08:08:47;;;;;;;5.20;1.60;;;20.20;99.90;;;;;;6238935;22;20708;-67
2022/06/28 08:11:13;;;;;;;18.25;2.25;;;20.80;99.90;;;;;;6269194;22;20026;-68
2022/06/28 08:13:38;;;;;;;6.32;1.00;;;21.00;99.00;;;;;;6268314;22;20058;-67
2022/06/28 08:16:05;;;;;;;3.58;0.98;;;20.60;96.20;;;;;;6268101;22;20090;-67
2022/06/28 08:18:31;;;;;;;9.38;1.48;;;20.40;99.80;;;;;;6268949;22;20065;-67
2022/06/28 08:20:56;;;;;;;3.70;1.20;;;20.50;97.60;;;;;;6266067;22;20023;-67
2022/06/28 08:23:22;;;;;;;6.13;1.25;;;20.90;99.90;;;;;;6269493;22;20011;-67
2022/06/28 08:25:51;;;;;;;10.50;1.23;;;21.30;96.10;;;;;;6267556;22;20037;-67
2022/06/28 08:28:17;;;;;;;4.18;1.25;;;21.60;92.70;;;;;;6269078;22;20108;-67
2022/06/28 08:30:43;;;;;;;4.43;1.33;;;21.30;88.20;;;;;;6268718;22;20390;-67
2022/06/28 08:33:09;;;;;;;8.02;1.17;;;20.90;89.60;;;;;;6268098;22;20077;-67
2022/06/28 08:35:35;;;;;;;6.55;1.02;;;20.50;94.60;;;;;;6267457;22;20335;-68
2022/06/28 08:38:04;;;;;;;4.15;1.02;;;20.70;95.80;;;;;;6266177;22;20426;-67
2022/06/28 08:40:31;;;;;;;;;;;21.00;99.80;;;;;;6267299;22;20023;-68
2022/06/28 08:42:58;;;;;;;5.10;1.35;;;21.40;97.70;;;;;;6264961;22;20010;-67
2022/06/28 08:45:25;;;;;;;5.70;1.60;;;21.80;97.90;;;;;;6269165;22;20015;-67
2022/06/28 08:47:53;;;;;;;2.80;1.00;;;22.00;71.10;;;;;;6263929;22;20020;-67
2022/06/28 08:50:32;;;;;;;2.20;0.98;;;22.10;72.00;;;;;;6265912;22;20023;-67
2022/06/28 08:53:03;;;;;;;;;;;21.80;78.80;;;;;;6268809;22;20015;-67
2022/06/28 08:55:34;;;;;;;9.40;1.05;;;21.30;85.20;;;;;;6265532;22;19927;-67
2022/06/28 08:58:01;;;;;;;4.38;1.08;;;21.10;79.20;;;;;;6266261;22;20510;-67
2022/06/28 09:00:27;;;;;;;5.72;1.40;;;21.30;94.60;;;;;;6266008;22;20020;-67
2022/06/28 09:02:53;;;;;;;7.93;1.52;;;21.60;85.40;;;;;;6268102;22;20708;-67
2022/06/28 09:05:24;;;;;;;4.43;1.30;;;22.00;87.00;;;;;;6266214;22;20126;-67
2022/06/28 09:07:50;;;;;;;5.32;1.20;;;22.30;85.30;;;;;;6263161;22;20349;-67
2022/06/28 09:10:19;;;;;;;5.88;1.25;;;22.40;74.40;;;;;;6266951;22;20022;-66
2022/06/28 09:12:54;;;;;;;4.57;1.23;;;22.60;85.60;;;;;;6267523;22;20035;-67
2022/06/28 09:15:25;;;;;;;6.65;1.40;;;22.70;61.80;;;;;;6266289;22;20445;-66
2022/06/28 09:17:55;;;;;;;5.72;1.00;;;22.30;58.30;;;;;;6265226;22;20020;-66
2022/06/28 09:20:35;;;;;;;4.40;1.45;;;22.00;53.80;;;;;;6267621;22;20106;-67
2022/06/28 09:23:01;;;;;;;5.85;1.30;;;21.60;66.50;;;;;;6268128;22;20023;-66
2022/06/28 09:25:30;;;;;;;5.00;1.23;;;21.50;60.90;;;;;;6265922;22;20024;-66
2022/06/28 09:27:58;;;;;;;2.83;1.05;;;21.50;67.70;;;;;;6267703;22;20016;-66
2022/06/28 09:30:26;;;;;;;6.97;1.52;;;21.80;75.50;;;;;;6265694;22;20012;-67
2022/06/28 09:32:52;;;;;;;5.85;1.08;;;22.10;57.80;;;;;;6267652;22;20070;-67
2022/06/28 09:35:18;;;;;;;1.85;0.70;;;22.30;75.20;;;;;;6267512;22;20058;-67
2022/06/28 09:37:50;;;;;;;4.47;0.98;;;22.60;72.40;;;;;;6267234;22;20024;-66
2022/06/28 09:40:31;;;;;;;9.68;2.47;;;22.70;51.30;;;;;;6266341;22;20019;-67
2022/06/28 09:43:15;;;;;;;9.88;1.50;;;22.90;38.20;;;;;;6267119;22;20023;-66
2022/06/28 09:45:46;;;;;;;5.18;1.35;;;22.90;40.70;;;;;;6240842;22;20123;-66
2022/06/28 09:48:17;;;;;;;3.92;1.20;;;22.90;44.60;;;;;;6267627;22;20027;-66
2022/06/28 09:50:43;;;;;;;4.32;0.90;;;23.00;43.10;;;;;;6265599;22;20060;-66
2022/06/28 09:53:13;;;;;;;5.97;1.20;;;23.00;30.60;;;;;;6268037;22;20052;-66
2022/06/28 09:55:39;;;;;;;9.35;1.83;;;23.00;53.10;;;;;;6267446;22;20032;-66
2022/06/28 09:58:05;;;;;;;6.60;1.42;;;23.20;50.10;;;;;;6265858;22;20024;-66
2022/06/28 10:00:34;;;;;;;5.47;1.40;;;23.30;22.80;;;;;;6266897;22;20334;-66
2022/06/28 10:03:00;;;;;;;4.50;1.13;;;23.30;38.70;;;;;;6266516;22;20219;-66
2022/06/28 10:05:26;;;;;;;5.38;1.25;;;23.40;47.00;;;;;;6240365;22;20558;-66
2022/06/28 10:07:52;;;;;;;7.03;1.30;;;23.40;21.70;;;;;;6268214;22;20018;-66
2022/06/28 10:10:20;;;;;;;6.43;1.90;;;23.20;20.10;;;;;;6268020;22;20100;-67
2022/06/28 10:15:36;;;;;;;6.15;1.33;;;23.20;32.10;;;;;;6268883;22;20020;-66
2022/06/28 10:18:05;;;;;;;8.32;1.45;;;23.30;29.80;;;;;;6264557;22;20051;-66
2022/06/28 10:20:36;;;;;;;7.83;1.87;;;23.40;25.60;;;;;;6267402;22;20458;-66
2022/06/28 10:23:40;;;;;;;5.90;1.65;;;23.30;22.10;;;;;;6266989;22;20019;-66
2022/06/28 10:26:15;;;;;;;6.82;1.40;;;23.20;30.40;;;;;;6267796;22;20105;-66
2022/06/28 10:28:59;;;;;;;3.75;1.02;;;23.10;25.50;;;;;;6268548;22;20031;-66
2022/06/28 10:31:25;;;;;;;7.55;1.20;;;22.90;29.60;;;;;;6264961;22;20016;-66
2022/06/28 10:34:02;;;;;;;8.02;1.35;;;22.80;34.70;;;;;;6267196;22;20470;-67
2022/06/28 10:36:44;;;;;;;6.03;1.40;;;22.60;34.40;;;;;;6269530;22;20085;-66
2022/06/28 10:39:17;;;;;;;7.50;1.55;;;22.30;25.90;;;;;;6268343;22;20690;-66
2022/06/28 10:41:44;;;;;;;5.18;1.23;;;22.10;50.90;;;;;;6269639;22;20023;-66
2022/06/28 10:44:21;;;;;;;3.45;1.10;;;21.90;36.70;;;;;;6268321;22;20051;-67
2022/06/28 10:47:11;;;;;;;3.88;1.23;;;21.60;41.50;;;;;;6268878;22;20015;-66
2022/06/28 10:49:46;;;;;;;3.58;1.10;;;21.50;51.30;;;;;;6268066;22;20015;-66
2022/06/28 10:52:18;;;;;;;5.40;1.17;;;21.40;58.00;;;;;;6265359;22;20251;-67
2022/06/28 10:54:54;;;;;;;6.25;0.82;;;21.60;74.20;;;;;;6267006;22;20019;-67
2022/06/28 10:57:24;;;;;;;6.03;1.45;;;21.90;69.60;;;;;;6266891;22;20051;-67
2022/06/28 10:59:52;;;;;;;5.15;1.77;;;22.00;65.80;;;;;;6266705;22;20098;-67
2022/06/28 11:02:18;;;;;;;6.70;1.25;;;22.10;59.10;;;;;;6265778;22;20069;-67
2022/06/28 11:04:46;;;;;;;6.75;1.35;;;22.10;58.10;;;;;;6265532;22;20026;-66
2022/06/28 11:07:23;;;;;;;5.45;1.35;;;22.00;45.40;;;;;;6266409;22;20074;-67
2022/06/28 11:10:03;;;;;;;6.13;1.33;;;22.10;58.30;;;;;;6266526;22;20019;-67
2022/06/28 11:12:31;;;;;;;4.15;1.25;;;22.40;61.20;;;;;;6268934;22;20051;-67
2022/06/28 11:15:08;;;;;;;4.45;1.45;;;22.60;54.40;;;;;;6268115;22;20472;-67
2022/06/28 11:17:40;;;;;;;9.43;1.80;;;22.80;48.00;;;;;;6267025;22;20071;-66
2022/06/28 11:20:12;;;;;;;6.13;1.25;;;22.90;50.30;;;;;;6267862;22;20070;-67
2022/06/28 11:22:45;;;;;;;8.60;1.55;;;23.00;43.00;;;;;;6267262;22;20012;-67
2022/06/28 11:25:16;;;;;;;6.25;1.40;;;23.00;47.40;;;;;;6268227;22;20472;-67
2022/06/28 11:27:44;;;;;;;5.97;1.40;;;23.10;26.60;;;;;;6268656;22;20343;-67
2022/06/28 11:30:11;;;;;;;6.82;1.60;;;23.10;31.10;;;;;;6267966;22;20015;-67
2022/06/28 11:32:45;;;;;;;6.28;1.48;;;23.10;26.30;;;;;;6268233;22;20022;-67
2022/06/28 11:35:19;;;;;;;3.22;1.25;;;22.70;29.20;;;;;;6266580;22;20334;-67
2022/06/28 11:37:52;;;;;;;9.52;1.50;;;22.70;59.50;;;;;;6267293;22;20023;-67
2022/06/28 11:40:21;;;;;;;3.53;1.38;;;22.80;47.70;;;;;;6263789;22;20026;-67
2022/06/28 11:42:59;;;;;;;5.25;1.70;;;22.70;31.10;;;;;;6269255;22;20023;-67
2022/06/28 11:45:28;;;;;;;6.13;1.67;;;22.60;37.50;;;;;;6269415;22;20016;-67
2022/06/28 11:47:53;;;;;;;6.40;1.20;;;22.70;43.80;;;;;;6266749;22;20026;-68
2022/06/28 11:50:19;;;;;;;6.00;1.30;;;22.70;27.80;;;;;;6266199;22;20024;-68
2022/06/28 11:52:53;;;;;;;5.53;1.27;;;22.20;43.50;;;;;;6265718;22;20449;-68
2022/06/28 11:55:39;;;;;;;6.40;1.40;;;21.70;44.70;;;;;;6268443;22;20493;-68
2022/06/28 11:58:25;;;;;;;4.30;1.30;;;21.40;57.10;;;;;;6269033;22;20082;-67
2022/06/28 12:01:20;;;;;;;4.75;1.38;;;21.50;66.80;;;;;;6268427;22;20074;-67
2022/06/28 12:03:46;;;;;;;3.75;1.00;;;21.50;45.00;;;;;;6267830;22;20019;-68
2022/06/28 12:06:22;;;;;;;4.53;1.33;;;21.30;53.60;;;;;;6265371;22;20453;-67
2022/06/28 12:08:50;;;;;;;5.97;1.02;;;21.00;64.10;;;;;;6269229;22;20012;-68
2022/06/28 12:11:44;;;;;;;4.70;1.33;;;21.00;72.70;;;;;;6268022;22;20419;-67
2022/06/28 12:14:18;;;;;;;5.38;1.67;;;21.00;67.60;;;;;;6265319;22;20033;-67
2022/06/28 12:17:03;;;;;;;4.60;1.20;;;21.20;55.30;;;;;;6266511;22;20074;-67
2022/06/28 12:19:32;;;;;;;6.78;1.10;;;21.50;68.20;;;;;;6267125;22;20024;-67
2022/06/28 12:22:08;;;;;;;10.10;1.23;;;21.80;63.10;;;;;;6266421;22;20363;-67
2022/06/28 12:24:53;;;;;;;7.07;2.13;;;22.10;63.00;;;;;;6268590;22;20019;-68
2022/06/28 12:27:21;;;;;;;7.00;1.40;;;22.30;53.20;;;;;;6264432;22;20066;-68
2022/06/28 12:29:59;;;;;;;8.00;1.20;;;22.50;21.90;;;;;;6266952;22;20024;-68
2022/06/28 12:32:26;;;;;;;3.17;1.17;;;22.60;22.00;;;;;;6267872;22;20438;-68
2022/06/28 12:35:05;;;;;;;6.05;2.35;;;22.60;16.60;;;;;;6268519;22;20065;-68
2022/06/28 12:37:32;;;;;;;5.25;1.20;;;22.70;28.40;;;;;;6266813;22;20027;-68
2022/06/28 12:39:59;;;;;;;7.70;2.00;;;22.70;22.80;;;;;;6267861;22;20019;-67
2022/06/28 12:42:29;;;;;;;5.32;1.23;;;22.80;18.10;;;;;;6268853;22;20343;-68
2022/06/28 12:44:56;;;;;;;9.98;1.73;;;22.80;20.00;;;;;;6268675;22;20019;-68
2022/06/28 12:47:23;;;;;;;5.18;1.40;;;22.80;40.70;;;;;;6240294;22;20081;-68
2022/06/28 12:49:49;;;;;;;7.90;1.83;;;22.80;24.40;;;;;;6266439;22;20011;-68
2022/06/28 12:52:14;;;;;;;6.13;1.65;;;22.80;26.10;;;;;;6265975;22;20037;-68
2022/06/28 12:54:40;;;;;;;5.22;1.30;;;22.80;22.10;;;;;;6266083;22;20586;-68
2022/06/28 12:57:06;;;;;;;6.65;1.25;;;22.60;17.90;;;;;;6267223;22;20341;-68
2022/06/28 12:59:32;;;;;;;8.05;1.25;;;22.40;17.30;;;;;;6269233;22;20008;-68
2022/06/28 13:01:58;;;;;;;5.00;1.40;;;22.30;35.70;;;;;;6267804;22;20100;-68
2022/06/28 13:04:24;;;;;;;5.05;1.33;;;22.10;30.10;;;;;;6266255;22;20066;-68